createdAt,value
2019-03-13T00:00:49.287Z,3.00
2019-03-13T00:01:49.280Z,2.90
2019-03-13T00:02:49.274Z,2.50
2019-03-13T00:03:49.263Z,2.00
2019-03-13T00:04:49.256Z,3.90
2019-03-13T00:05:49.253Z,4.50
2019-03-13T00:06:49.241Z,2.20
2019-03-13T00:07:49.236Z,3.90
2019-03-13T00:08:49.230Z,2.50
2019-03-13T00:09:49.221Z,3.00
2019-03-13T00:10:49.213Z,1.60
2019-03-13T00:11:49.207Z,2.60
2019-03-13T00:12:49.198Z,2.70
2019-03-13T00:13:49.194Z,2.10
2019-03-13T00:14:49.182Z,3.30
2019-03-13T00:15:49.928Z,2.80
2019-03-13T00:16:49.168Z,2.60
2019-03-13T00:17:49.163Z,1.70
2019-03-13T00:18:49.152Z,2.30
2019-03-13T00:19:49.144Z,2.70
2019-03-13T00:20:49.139Z,2.00
2019-03-13T00:21:49.136Z,2.80
2019-03-13T00:22:49.124Z,2.60
2019-03-13T00:23:49.121Z,2.10
2019-03-13T00:24:49.108Z,1.80
2019-03-13T00:25:49.102Z,2.50
2019-03-13T00:26:49.093Z,2.50
2019-03-13T00:27:49.085Z,2.00
2019-03-13T00:28:49.080Z,2.10
2019-03-13T00:29:49.073Z,2.70
2019-03-13T00:30:49.063Z,2.10
2019-03-13T00:31:49.059Z,2.80
2019-03-13T00:32:49.054Z,3.30
2019-03-13T00:33:49.040Z,2.60
2019-03-13T00:34:49.035Z,2.50
2019-03-13T00:35:49.028Z,2.60
2019-03-13T00:36:49.026Z,3.10
2019-03-13T00:37:49.015Z,2.60
2019-03-13T00:38:49.007Z,2.50
2019-03-13T00:39:48.998Z,2.70
2019-03-13T00:40:48.992Z,2.50
2019-03-13T00:41:48.986Z,2.80
2019-03-13T00:42:48.974Z,2.20
2019-03-13T00:43:48.968Z,2.90
2019-03-13T00:44:48.962Z,2.70
2019-03-13T00:45:48.953Z,2.10
2019-03-13T00:46:48.947Z,2.00
2019-03-13T00:47:48.944Z,2.30
2019-03-13T00:48:48.933Z,2.40
2019-03-13T00:49:48.925Z,2.00
2019-03-13T00:50:48.919Z,2.80
2019-03-13T00:51:48.912Z,1.60
2019-03-13T00:52:48.958Z,1.70
2019-03-13T00:53:48.897Z,2.40
2019-03-13T00:54:48.890Z,1.90
2019-03-13T00:55:48.880Z,1.90
2019-03-13T00:56:48.874Z,1.80
2019-03-13T00:57:48.868Z,2.10
2019-03-13T00:58:48.860Z,2.40
2019-03-13T00:59:48.851Z,2.50
2019-03-13T01:00:48.845Z,2.30
2019-03-13T01:01:48.843Z,2.10
2019-03-13T01:02:48.832Z,1.80
2019-03-13T01:03:48.827Z,2.50
2019-03-13T01:04:48.817Z,1.40
2019-03-13T01:05:48.817Z,1.90
2019-03-13T01:06:48.803Z,1.70
2019-03-13T01:07:48.796Z,2.30
2019-03-13T01:08:48.786Z,2.10
2019-03-13T01:09:48.783Z,1.80
2019-03-13T01:10:48.775Z,2.20
2019-03-13T01:11:48.769Z,1.70
2019-03-13T01:12:48.764Z,3.30
2019-03-13T01:13:48.754Z,1.80
2019-03-13T01:14:48.742Z,2.30
2019-03-13T01:15:48.747Z,4.30
2019-03-13T01:16:48.731Z,2.00
2019-03-13T01:17:48.718Z,3.40
2019-03-13T01:18:48.721Z,2.00
2019-03-13T01:19:48.707Z,1.90
2019-03-13T01:20:48.702Z,3.40
2019-03-13T01:21:48.694Z,2.60
2019-03-13T01:22:48.690Z,1.60
2019-03-13T01:23:48.677Z,1.50
2019-03-13T01:24:48.681Z,1.60
2019-03-13T01:25:48.666Z,2.20
2019-03-13T01:26:48.749Z,2.60
2019-03-13T01:27:48.651Z,1.60
2019-03-13T01:28:48.645Z,2.50
2019-03-13T01:29:48.638Z,2.10
2019-03-13T01:30:48.634Z,2.70
2019-03-13T01:31:48.621Z,2.20
2019-03-13T01:32:48.622Z,3.30
2019-03-13T01:33:48.610Z,2.50
2019-03-13T01:34:48.600Z,1.80
2019-03-13T01:35:48.593Z,2.20
2019-03-13T01:36:48.582Z,1.60
2019-03-13T01:37:48.586Z,2.40
2019-03-13T01:38:48.577Z,3.50
2019-03-13T01:39:48.564Z,2.80
2019-03-13T01:40:48.562Z,2.70
2019-03-13T01:41:48.550Z,2.80
2019-03-13T01:42:48.543Z,3.20
2019-03-13T01:43:48.536Z,3.10
2019-03-13T01:44:48.529Z,3.50
2019-03-13T01:45:48.512Z,2.60
2019-03-13T01:46:48.516Z,2.90
2019-03-13T01:47:48.506Z,2.50
2019-03-13T01:48:48.515Z,2.30
2019-03-13T01:49:48.494Z,2.30
2019-03-13T01:50:48.484Z,2.70
2019-03-13T01:51:48.478Z,2.60
2019-03-13T01:52:48.475Z,2.70
2019-03-13T01:53:48.464Z,2.20
2019-03-13T01:54:48.456Z,1.80
2019-03-13T01:55:48.447Z,1.90
2019-03-13T01:56:48.441Z,2.70
2019-03-13T01:57:48.433Z,3.40
2019-03-13T01:58:48.431Z,2.30
2019-03-13T01:59:48.418Z,2.70
2019-03-13T02:00:48.411Z,2.50
2019-03-13T02:01:48.404Z,2.00
2019-03-13T02:02:48.394Z,1.80
2019-03-13T02:03:48.396Z,3.40
2019-03-13T02:04:48.380Z,2.30
2019-03-13T02:05:48.370Z,2.40
2019-03-13T02:06:48.368Z,2.70
2019-03-13T02:07:48.361Z,2.60
2019-03-13T02:08:48.351Z,3.00
2019-03-13T02:09:48.344Z,3.60
2019-03-13T02:10:48.338Z,2.50
2019-03-13T02:11:48.327Z,2.90
2019-03-13T02:12:48.320Z,3.40
2019-03-13T02:13:48.314Z,3.40
2019-03-13T02:14:48.306Z,2.20
2019-03-13T02:15:48.297Z,2.20
2019-03-13T02:16:48.290Z,2.70
2019-03-13T02:17:48.293Z,2.40
2019-03-13T02:18:48.275Z,3.50
2019-03-13T02:19:49.863Z,2.40
2019-03-13T02:20:48.262Z,3.00
2019-03-13T02:21:48.252Z,3.00
2019-03-13T02:22:48.244Z,2.70
2019-03-13T02:23:48.237Z,3.70
2019-03-13T02:24:48.247Z,2.90
2019-03-13T02:25:48.223Z,2.10
2019-03-13T02:26:48.215Z,3.40
2019-03-13T02:27:48.205Z,3.10
2019-03-13T02:28:48.209Z,2.60
2019-03-13T02:29:48.196Z,4.60
2019-03-13T02:30:48.185Z,3.10
2019-03-13T02:31:48.177Z,3.40
2019-03-13T02:32:48.182Z,3.30
2019-03-13T02:33:48.162Z,2.70
2019-03-13T02:34:48.157Z,2.80
2019-03-13T02:35:48.154Z,2.80
2019-03-13T02:36:48.305Z,2.50
2019-03-13T02:37:48.136Z,2.50
2019-03-13T02:38:48.126Z,3.20
2019-03-13T02:39:48.124Z,2.80
2019-03-13T02:40:48.114Z,2.00
2019-03-13T02:41:48.105Z,2.80
2019-03-13T02:42:48.100Z,3.80
2019-03-13T02:43:48.081Z,2.40
2019-03-13T02:44:48.086Z,2.50
2019-03-13T02:45:48.070Z,2.80
2019-03-13T02:46:48.063Z,2.60
2019-03-13T02:47:48.055Z,3.40
2019-03-13T02:48:48.049Z,2.20
2019-03-13T02:49:48.049Z,3.50
2019-03-13T02:50:48.032Z,3.10
2019-03-13T02:51:48.023Z,3.90
2019-03-13T02:52:48.025Z,4.00
2019-03-13T02:53:48.009Z,3.30
2019-03-13T02:54:47.996Z,2.80
2019-03-13T02:55:48.066Z,3.70
2019-03-13T02:56:47.982Z,2.90
2019-03-13T02:57:47.990Z,2.70
2019-03-13T02:58:47.970Z,3.40
2019-03-13T02:59:47.959Z,2.60
2019-03-13T03:00:47.952Z,3.20
2019-03-13T03:01:47.945Z,2.60
2019-03-13T03:02:47.939Z,3.70
2019-03-13T03:03:47.933Z,3.30
2019-03-13T03:04:47.924Z,2.90
2019-03-13T03:05:47.914Z,3.20
2019-03-13T03:06:47.905Z,2.60
2019-03-13T03:07:47.898Z,2.80
2019-03-13T03:08:47.897Z,3.00
2019-03-13T03:09:47.888Z,2.60
2019-03-13T03:10:47.873Z,2.80
2019-03-13T03:11:47.866Z,2.60
2019-03-13T03:12:47.858Z,2.80
2019-03-13T03:13:47.852Z,2.10
2019-03-13T03:14:47.843Z,2.00
2019-03-13T03:15:47.836Z,4.20
2019-03-13T03:16:47.828Z,2.60
2019-03-13T03:17:47.881Z,4.00
2019-03-13T03:18:47.811Z,3.30
2019-03-13T03:19:47.805Z,3.00
2019-03-13T03:20:47.795Z,2.30
2019-03-13T03:21:47.791Z,2.40
2019-03-13T03:22:47.782Z,2.30
2019-03-13T03:23:47.778Z,1.80
2019-03-13T03:24:47.769Z,1.30
2019-03-13T03:25:47.758Z,1.60
2019-03-13T03:26:47.750Z,1.50
2019-03-13T03:27:47.744Z,1.30
2019-03-13T03:28:47.741Z,1.50
2019-03-13T03:29:47.729Z,0.80
2019-03-13T03:30:47.727Z,1.10
2019-03-13T03:31:47.717Z,0.60
2019-03-13T03:32:47.706Z,0.60
2019-03-13T03:33:47.697Z,0.70
2019-03-13T03:34:47.699Z,0.60
2019-03-13T03:35:47.682Z,0.60
2019-03-13T03:36:47.678Z,0.60
2019-03-13T03:37:47.681Z,0.70
2019-03-13T03:38:47.659Z,0.50
2019-03-13T03:39:47.649Z,1.00
2019-03-13T03:40:47.643Z,0.30
2019-03-13T03:41:47.634Z,0.60
2019-03-13T03:42:48.423Z,0.60
2019-03-13T03:43:47.617Z,0.40
2019-03-13T03:44:47.609Z,0.30
2019-03-13T03:45:47.604Z,0.40
2019-03-13T03:46:47.598Z,0.40
2019-03-13T03:47:47.596Z,0.70
2019-03-13T03:48:47.579Z,0.50
2019-03-13T03:49:47.569Z,1.90
2019-03-13T03:50:47.563Z,0.50
2019-03-13T03:51:47.551Z,0.40
2019-03-13T03:52:47.548Z,1.10
2019-03-13T03:53:47.538Z,0.60
2019-03-13T03:54:47.528Z,0.80
2019-03-13T03:55:47.519Z,0.90
2019-03-13T03:56:47.508Z,1.30
2019-03-13T03:57:47.507Z,0.60
2019-03-13T03:58:47.497Z,0.50
2019-03-13T03:59:47.488Z,0.70
2019-03-13T04:00:47.479Z,0.70
2019-03-13T04:01:47.471Z,0.60
2019-03-13T04:02:47.464Z,1.20
2019-03-13T04:03:47.455Z,0.50
2019-03-13T04:04:47.443Z,0.70
2019-03-13T04:05:47.437Z,0.90
2019-03-13T04:06:47.425Z,1.20
2019-03-13T04:07:47.420Z,1.20
2019-03-13T04:08:47.414Z,1.20
2019-03-13T04:09:47.402Z,1.30
2019-03-13T04:10:47.394Z,0.80
2019-03-13T04:11:47.385Z,1.00
2019-03-13T04:12:47.388Z,1.60
2019-03-13T04:13:47.369Z,0.80
2019-03-13T04:14:47.361Z,2.30
2019-03-13T04:15:47.352Z,1.70
2019-03-13T04:16:47.344Z,1.20
2019-03-13T04:17:47.348Z,0.80
2019-03-13T04:18:47.329Z,1.00
2019-03-13T04:19:47.322Z,1.60
2019-03-13T04:20:47.313Z,2.40
2019-03-13T04:21:47.308Z,1.90
2019-03-13T04:22:47.294Z,1.40
2019-03-13T04:23:47.284Z,1.20
2019-03-13T04:24:47.276Z,1.10
2019-03-13T04:25:47.270Z,1.20
2019-03-13T04:26:47.258Z,2.80
2019-03-13T04:27:47.249Z,1.80
2019-03-13T04:28:47.244Z,1.60
2019-03-13T04:29:47.245Z,1.80
2019-03-13T04:30:47.222Z,1.50
2019-03-13T04:31:47.220Z,2.00
2019-03-13T04:32:47.209Z,2.60
2019-03-13T04:33:47.199Z,3.50
2019-03-13T04:34:47.192Z,1.60
2019-03-13T04:35:47.188Z,2.00
2019-03-13T04:36:47.173Z,2.00
2019-03-13T04:37:47.167Z,2.30
2019-03-13T04:38:47.154Z,1.20
2019-03-13T04:39:47.146Z,1.90
2019-03-13T04:40:47.139Z,1.90
2019-03-13T04:41:47.130Z,1.80
2019-03-13T04:42:47.124Z,1.60
2019-03-13T04:43:47.112Z,1.80
2019-03-13T04:44:47.105Z,1.40
2019-03-13T04:45:47.095Z,1.70
2019-03-13T04:46:47.088Z,1.30
2019-03-13T04:47:47.079Z,1.60
2019-03-13T04:48:47.074Z,1.90
2019-03-13T04:49:47.064Z,2.40
2019-03-13T04:50:47.053Z,1.50
2019-03-13T04:51:47.048Z,2.70
2019-03-13T04:52:47.035Z,1.40
2019-03-13T04:53:47.032Z,1.70
2019-03-13T04:54:47.022Z,2.20
2019-03-13T04:55:47.010Z,3.20
2019-03-13T04:56:47.001Z,1.50
2019-03-13T04:57:46.994Z,1.30
2019-03-13T04:58:46.990Z,2.30
2019-03-13T04:59:46.975Z,2.20
2019-03-13T05:00:46.968Z,2.50
2019-03-13T05:01:47.001Z,2.30
2019-03-13T05:02:46.950Z,2.80
2019-03-13T05:03:46.943Z,2.20
2019-03-13T05:04:46.936Z,2.20
2019-03-13T05:05:46.932Z,3.30
2019-03-13T05:06:46.921Z,2.60
2019-03-13T05:07:46.910Z,3.30
2019-03-13T05:08:46.905Z,3.20
2019-03-13T05:09:46.890Z,3.00
2019-03-13T05:10:46.887Z,2.90
2019-03-13T05:11:46.875Z,4.00
2019-03-13T05:12:46.877Z,3.10
2019-03-13T05:13:46.862Z,3.60
2019-03-13T05:14:46.848Z,2.50
2019-03-13T05:15:46.839Z,2.80
2019-03-13T05:16:46.839Z,3.00
2019-03-13T05:17:46.824Z,2.70
2019-03-13T05:18:46.816Z,5.60
2019-03-13T05:19:46.813Z,4.10
2019-03-13T05:20:46.799Z,3.00
2019-03-13T05:21:46.794Z,4.20
2019-03-13T05:22:46.780Z,3.60
2019-03-13T05:23:46.771Z,3.20
2019-03-13T05:24:46.763Z,4.60
2019-03-13T05:25:46.757Z,5.30
2019-03-13T05:26:46.746Z,2.40
2019-03-13T05:27:46.739Z,3.30
2019-03-13T05:28:46.728Z,3.80
2019-03-13T05:29:46.720Z,3.60
2019-03-13T05:30:46.709Z,3.90
2019-03-13T05:31:46.702Z,3.20
2019-03-13T05:32:46.695Z,4.40
2019-03-13T05:33:46.688Z,4.40
2019-03-13T05:34:46.676Z,3.10
2019-03-13T05:35:46.696Z,4.00
2019-03-13T05:36:46.661Z,2.20
2019-03-13T05:37:46.652Z,5.20
2019-03-13T05:38:46.642Z,3.60
2019-03-13T05:39:46.639Z,4.00
2019-03-13T05:40:46.630Z,3.10
2019-03-13T05:41:46.621Z,3.90
2019-03-13T05:42:46.609Z,4.10
2019-03-13T05:43:46.595Z,3.10
2019-03-13T05:44:46.592Z,4.70
2019-03-13T05:45:46.579Z,4.10
2019-03-13T05:46:46.571Z,4.80
2019-03-13T05:47:46.564Z,4.20
2019-03-13T05:48:46.558Z,3.60
2019-03-13T05:49:46.547Z,4.60
2019-03-13T05:50:46.537Z,3.90
2019-03-13T05:51:46.531Z,3.30
2019-03-13T05:52:46.522Z,4.70
2019-03-13T05:53:46.518Z,3.30
2019-03-13T05:54:46.505Z,4.20
2019-03-13T05:55:46.497Z,5.20
2019-03-13T05:56:46.488Z,3.70
2019-03-13T05:57:46.480Z,2.50
2019-03-13T05:58:46.471Z,6.30
2019-03-13T05:59:46.463Z,3.60
2019-03-13T06:00:46.457Z,4.30
2019-03-13T06:01:46.448Z,3.80
2019-03-13T06:02:47.870Z,3.60
2019-03-13T06:03:46.427Z,2.20
2019-03-13T06:04:46.418Z,3.40
2019-03-13T06:05:46.412Z,4.90
2019-03-13T06:06:46.406Z,3.50
2019-03-13T06:07:46.394Z,3.20
2019-03-13T06:08:46.384Z,3.30
2019-03-13T06:09:46.385Z,3.50
2019-03-13T06:10:46.368Z,3.80
2019-03-13T06:11:46.363Z,5.00
2019-03-13T06:12:46.352Z,4.40
2019-03-13T06:13:47.439Z,3.80
2019-03-13T06:14:46.335Z,3.50
2019-03-13T06:15:46.328Z,5.00
2019-03-13T06:16:46.316Z,2.40
2019-03-13T06:17:46.307Z,2.90
2019-03-13T06:18:46.299Z,4.30
2019-03-13T06:19:46.289Z,4.30
2019-03-13T06:20:46.281Z,3.50
2019-03-13T06:21:46.275Z,2.80
2019-03-13T06:22:46.267Z,4.40
2019-03-13T06:23:48.041Z,5.30
2019-03-13T06:24:46.249Z,4.10
2019-03-13T06:25:46.241Z,3.80
2019-03-13T06:26:46.235Z,3.70
2019-03-13T06:27:46.843Z,3.40
2019-03-13T06:28:46.223Z,3.40
2019-03-13T06:29:46.207Z,4.40
2019-03-13T06:30:46.197Z,3.80
2019-03-13T06:31:46.189Z,2.70
2019-03-13T06:32:46.183Z,4.10
2019-03-13T06:33:46.176Z,4.10
2019-03-13T06:34:46.163Z,4.70
2019-03-13T06:35:46.157Z,4.30
2019-03-13T06:36:46.148Z,4.10
2019-03-13T06:37:46.138Z,3.50
2019-03-13T06:38:46.129Z,3.90
2019-03-13T06:39:46.122Z,3.70
2019-03-13T06:40:46.121Z,2.90
2019-03-13T06:41:46.108Z,4.60
2019-03-13T06:42:46.098Z,3.00
2019-03-13T06:43:46.090Z,3.40
2019-03-13T06:44:46.084Z,5.00
2019-03-13T06:45:46.074Z,4.60
2019-03-13T06:46:46.109Z,5.30
2019-03-13T06:47:46.078Z,3.60
2019-03-13T06:48:46.045Z,2.70
2019-03-13T06:49:47.758Z,3.80
2019-03-13T06:50:46.027Z,3.60
2019-03-13T06:51:46.020Z,3.20
2019-03-13T06:52:46.013Z,5.00
2019-03-13T06:53:46.005Z,3.60
2019-03-13T06:54:45.999Z,2.60
2019-03-13T06:55:45.991Z,2.70
2019-03-13T06:56:45.983Z,4.80
2019-03-13T06:57:45.972Z,5.30
2019-03-13T06:58:45.963Z,3.50
2019-03-13T06:59:45.954Z,3.70
2019-03-13T07:00:45.946Z,3.00
2019-03-13T07:01:45.940Z,4.70
2019-03-13T07:02:45.929Z,3.40
2019-03-13T07:03:45.924Z,4.40
2019-03-13T07:04:45.913Z,3.80
2019-03-13T07:05:45.905Z,4.40
2019-03-13T07:06:45.898Z,4.20
2019-03-13T07:07:45.890Z,3.60
2019-03-13T07:08:45.882Z,3.60
2019-03-13T07:09:45.876Z,5.20
2019-03-13T07:10:45.862Z,4.30
2019-03-13T07:11:45.856Z,3.80
2019-03-13T07:12:45.855Z,4.10
2019-03-13T07:13:45.839Z,4.40
2019-03-13T07:14:45.834Z,2.90
2019-03-13T07:15:45.828Z,3.40
2019-03-13T07:16:45.820Z,3.90
2019-03-13T07:17:45.807Z,4.20
2019-03-13T07:18:45.798Z,3.90
2019-03-13T07:19:45.797Z,3.60
2019-03-13T07:20:45.782Z,2.90
2019-03-13T07:21:45.781Z,4.70
2019-03-13T07:22:45.769Z,3.10
2019-03-13T07:23:45.759Z,4.50
2019-03-13T07:24:45.751Z,2.70
2019-03-13T07:25:45.744Z,7.70
2019-03-13T07:26:45.735Z,2.90
2019-03-13T07:27:45.726Z,5.40
2019-03-13T07:28:45.721Z,4.10
2019-03-13T07:29:45.712Z,3.90
2019-03-13T07:30:45.705Z,4.70
2019-03-13T07:31:45.710Z,3.40
2019-03-13T07:32:45.686Z,2.60
2019-03-13T07:33:45.686Z,4.40
2019-03-13T07:34:45.674Z,4.00
2019-03-13T07:35:45.664Z,3.00
2019-03-13T07:36:45.658Z,3.60
2019-03-13T07:37:45.653Z,3.60
2019-03-13T07:38:45.641Z,6.30
2019-03-13T07:39:45.635Z,5.00
2019-03-13T07:40:45.628Z,4.30
2019-03-13T07:41:45.618Z,5.30
2019-03-13T07:42:45.613Z,4.50
2019-03-13T07:43:45.603Z,3.00
2019-03-13T07:44:45.601Z,5.00
2019-03-13T07:45:45.590Z,4.80
2019-03-13T07:46:45.580Z,3.70
2019-03-13T07:47:45.574Z,3.60
2019-03-13T07:48:45.569Z,3.40
2019-03-13T07:49:45.559Z,3.10
2019-03-13T07:50:45.552Z,4.60
2019-03-13T07:51:45.545Z,3.10
2019-03-13T07:52:45.539Z,3.30
2019-03-13T07:53:45.530Z,4.00
2019-03-13T07:54:45.524Z,3.00
2019-03-13T07:55:45.515Z,4.30
2019-03-13T07:56:45.510Z,3.60
2019-03-13T07:57:45.500Z,5.20
2019-03-13T07:58:45.494Z,2.40
2019-03-13T07:59:45.487Z,5.20
2019-03-13T08:00:45.481Z,4.20
2019-03-13T08:01:45.473Z,4.60
2019-03-13T08:02:45.467Z,2.80
2019-03-13T08:03:45.458Z,4.00
2019-03-13T08:04:45.452Z,4.80
2019-03-13T08:05:45.443Z,4.00
2019-03-13T08:06:45.435Z,4.30
2019-03-13T08:07:45.429Z,3.00
2019-03-13T08:08:45.422Z,2.70
2019-03-13T08:09:45.414Z,3.90
2019-03-13T08:10:45.404Z,3.20
2019-03-13T08:11:45.398Z,3.20
2019-03-13T08:12:45.389Z,3.10
2019-03-13T08:13:45.385Z,3.40
2019-03-13T08:14:45.396Z,3.10
2019-03-13T08:15:45.368Z,3.60
2019-03-13T08:16:45.361Z,4.50
2019-03-13T08:17:45.371Z,3.50
2019-03-13T08:18:45.362Z,5.00
2019-03-13T08:19:45.340Z,3.50
2019-03-13T08:20:45.330Z,3.20
2019-03-13T08:21:46.505Z,3.90
2019-03-13T08:22:45.319Z,4.20
2019-03-13T08:23:45.310Z,3.10
2019-03-13T08:24:45.306Z,3.50
2019-03-13T08:25:45.297Z,2.60
2019-03-13T08:26:45.287Z,4.00
2019-03-13T08:27:45.284Z,4.10
2019-03-13T08:28:45.283Z,4.40
2019-03-13T08:29:45.267Z,3.40
2019-03-13T08:30:47.245Z,3.70
2019-03-13T08:31:45.391Z,3.60
2019-03-13T08:32:45.304Z,3.80
2019-03-13T08:33:45.241Z,4.10
2019-03-13T08:34:47.642Z,2.90
2019-03-13T08:35:45.224Z,3.80
2019-03-13T08:36:45.221Z,3.40
2019-03-13T08:37:45.212Z,3.10
2019-03-13T08:38:46.461Z,3.90
2019-03-13T08:39:45.198Z,2.40
2019-03-13T08:40:45.192Z,2.20
2019-03-13T08:41:45.184Z,4.50
2019-03-13T08:42:45.206Z,2.90
2019-03-13T08:43:45.171Z,3.40
2019-03-13T08:44:45.198Z,2.90
2019-03-13T08:45:45.160Z,3.40
2019-03-13T08:46:45.152Z,4.50
2019-03-13T08:47:45.148Z,3.70
2019-03-13T08:48:45.141Z,3.40
2019-03-13T08:49:45.134Z,3.50
2019-03-13T08:50:45.127Z,3.00
2019-03-13T08:51:45.125Z,4.90
2019-03-13T08:52:45.327Z,2.60
2019-03-13T08:53:45.110Z,5.60
2019-03-13T08:54:45.104Z,4.10
2019-03-13T08:55:45.090Z,3.50
2019-03-13T08:56:45.085Z,3.30
2019-03-13T08:57:45.083Z,3.70
2019-03-13T08:58:45.077Z,3.70
2019-03-13T08:59:45.071Z,3.80
2019-03-13T09:00:45.065Z,5.30
2019-03-13T09:01:45.058Z,3.90
2019-03-13T09:02:45.053Z,3.10
2019-03-13T09:03:45.045Z,3.10
2019-03-13T09:04:45.056Z,6.50
2019-03-13T09:05:45.035Z,5.60
2019-03-13T09:06:45.029Z,3.50
2019-03-13T09:07:45.022Z,3.30
2019-03-13T09:08:45.018Z,4.10
2019-03-13T09:09:45.011Z,3.10
2019-03-13T09:10:45.004Z,2.80
2019-03-13T09:11:45.016Z,2.90
2019-03-13T09:12:44.993Z,3.60
2019-03-13T09:13:44.984Z,3.90
2019-03-13T09:14:44.979Z,4.10
2019-03-13T09:15:44.976Z,3.10
2019-03-13T09:16:44.962Z,4.70
2019-03-13T09:17:44.962Z,4.20
2019-03-13T09:18:44.954Z,4.80
2019-03-13T09:19:44.948Z,3.90
2019-03-13T09:20:44.942Z,5.10
2019-03-13T09:21:44.939Z,4.40
2019-03-13T09:22:44.930Z,4.80
2019-03-13T09:23:44.923Z,2.80
2019-03-13T09:24:44.923Z,3.70
2019-03-13T09:25:44.913Z,3.90
2019-03-13T09:26:44.907Z,3.70
2019-03-13T09:27:44.903Z,4.10
2019-03-13T09:28:44.898Z,5.50
2019-03-13T09:29:44.888Z,4.00
2019-03-13T09:30:44.881Z,4.10
2019-03-13T09:31:44.880Z,4.10
2019-03-13T09:32:44.872Z,3.60
2019-03-13T09:33:44.866Z,5.30
2019-03-13T09:34:44.861Z,3.40
2019-03-13T09:35:44.854Z,3.10
2019-03-13T09:36:44.857Z,4.10
2019-03-13T09:37:44.841Z,4.70
2019-03-13T09:38:44.848Z,6.00
2019-03-13T09:39:44.831Z,3.80
2019-03-13T09:40:44.831Z,4.60
2019-03-13T09:41:44.844Z,4.50
2019-03-13T09:42:44.814Z,3.30
2019-03-13T09:43:44.806Z,5.00
2019-03-13T09:44:44.807Z,4.50
2019-03-13T09:45:44.797Z,3.30
2019-03-13T09:46:44.791Z,3.80
2019-03-13T09:47:44.832Z,5.50
2019-03-13T09:48:44.780Z,5.70
2019-03-13T09:49:44.775Z,2.70
2019-03-13T09:50:44.773Z,5.00
2019-03-13T09:51:44.778Z,4.30
2019-03-13T09:52:44.777Z,4.20
2019-03-13T09:53:44.794Z,3.70
2019-03-13T09:54:44.745Z,3.70
2019-03-13T09:55:44.739Z,4.40
2019-03-13T09:56:45.103Z,3.00
2019-03-13T09:57:44.730Z,4.30
2019-03-13T09:58:44.805Z,3.90
2019-03-13T09:59:44.717Z,8.60
2019-03-13T10:00:44.712Z,3.70
2019-03-13T10:01:44.707Z,4.20
2019-03-13T10:02:44.699Z,3.70
2019-03-13T10:03:44.694Z,5.60
2019-03-13T10:04:44.688Z,3.80
2019-03-13T10:05:44.708Z,3.70
2019-03-13T10:06:44.679Z,5.80
2019-03-13T10:07:44.670Z,3.00
2019-03-13T10:08:44.667Z,5.00
2019-03-13T10:09:44.663Z,5.00
2019-03-13T10:10:44.651Z,4.70
2019-03-13T10:11:44.651Z,4.70
2019-03-13T10:12:44.642Z,4.10
2019-03-13T10:13:44.638Z,4.60
2019-03-13T10:14:44.632Z,3.50
2019-03-13T10:15:44.626Z,4.50
2019-03-13T10:16:44.620Z,4.30
2019-03-13T10:17:44.608Z,2.90
2019-03-13T10:18:44.608Z,4.80
2019-03-13T10:19:44.919Z,4.00
2019-03-13T10:20:44.610Z,5.30
2019-03-13T10:21:44.592Z,5.10
2019-03-13T10:22:44.588Z,4.60
2019-03-13T10:23:44.702Z,5.10
2019-03-13T10:24:44.577Z,4.20
2019-03-13T10:25:44.572Z,4.70
2019-03-13T10:26:44.567Z,5.50
2019-03-13T10:27:44.560Z,4.60
2019-03-13T10:28:44.555Z,4.40
2019-03-13T10:29:44.611Z,4.50
2019-03-13T10:30:44.545Z,9.20
2019-03-13T10:31:46.676Z,5.10
2019-03-13T10:32:44.537Z,4.70
2019-03-13T10:33:44.529Z,5.90
2019-03-13T10:34:44.520Z,3.70
2019-03-13T10:35:44.517Z,4.10
2019-03-13T10:36:44.512Z,5.20
2019-03-13T10:37:44.522Z,5.30
2019-03-13T10:38:44.499Z,4.60
2019-03-13T10:39:44.496Z,4.70
2019-03-13T10:40:44.491Z,4.20
2019-03-13T10:41:44.482Z,5.30
2019-03-13T10:42:44.478Z,3.30
2019-03-13T10:43:44.476Z,4.30
2019-03-13T10:44:44.471Z,2.90
2019-03-13T10:45:44.465Z,3.80
2019-03-13T10:46:44.457Z,3.40
2019-03-13T10:47:44.455Z,5.10
2019-03-13T10:48:44.447Z,4.40
2019-03-13T10:49:44.451Z,5.10
2019-03-13T10:50:44.436Z,3.50
2019-03-13T10:51:44.432Z,3.40
2019-03-13T10:52:44.428Z,5.00
2019-03-13T10:53:44.424Z,4.10
2019-03-13T10:54:44.444Z,3.60
2019-03-13T10:55:44.410Z,3.50
2019-03-13T10:56:44.405Z,4.30
2019-03-13T10:57:44.400Z,3.00
2019-03-13T10:58:44.396Z,3.70
2019-03-13T10:59:44.388Z,3.50
2019-03-13T11:00:44.385Z,4.10
2019-03-13T11:01:44.380Z,4.10
2019-03-13T11:02:44.377Z,5.60
2019-03-13T11:03:44.370Z,3.50
2019-03-13T11:04:44.365Z,3.90
2019-03-13T11:05:44.360Z,2.60
2019-03-13T11:06:54.441Z,3.60
2019-03-13T11:07:44.353Z,4.30
2019-03-13T11:08:44.343Z,3.50
2019-03-13T11:09:44.338Z,4.30
2019-03-13T11:10:44.332Z,3.20
2019-03-13T11:11:44.327Z,4.70
2019-03-13T11:12:44.326Z,3.90
2019-03-13T11:13:44.317Z,4.10
2019-03-13T11:14:44.313Z,3.90
2019-03-13T11:15:44.306Z,2.90
2019-03-13T11:16:44.302Z,4.10
2019-03-13T11:17:44.296Z,3.90
2019-03-13T11:18:44.291Z,4.30
2019-03-13T11:19:44.290Z,5.70
2019-03-13T11:20:44.282Z,4.00
2019-03-13T11:21:44.281Z,4.30
2019-03-13T11:22:44.276Z,4.00
2019-03-13T11:23:44.267Z,4.30
2019-03-13T11:24:44.261Z,3.50
2019-03-13T11:25:44.263Z,4.10
2019-03-13T11:26:44.254Z,4.50
2019-03-13T11:27:44.256Z,6.00
2019-03-13T11:28:44.245Z,3.50
2019-03-13T11:29:44.242Z,4.70
2019-03-13T11:30:44.237Z,3.90
2019-03-13T11:31:44.231Z,4.10
2019-03-13T11:32:44.223Z,4.50
2019-03-13T11:33:44.222Z,4.10
2019-03-13T11:34:44.214Z,3.30
2019-03-13T11:35:44.209Z,4.70
2019-03-13T11:36:44.205Z,3.10
2019-03-13T11:37:44.196Z,4.10
2019-03-13T11:38:44.195Z,4.80
2019-03-13T11:39:44.191Z,5.50
2019-03-13T11:40:44.186Z,3.70
2019-03-13T11:41:44.184Z,4.30
2019-03-13T11:42:44.175Z,4.60
2019-03-13T11:43:44.173Z,3.60
2019-03-13T11:44:44.174Z,4.20
2019-03-13T11:45:44.160Z,3.90
2019-03-13T11:46:44.152Z,5.00
2019-03-13T11:47:44.150Z,4.00
2019-03-13T11:48:44.143Z,3.30
2019-03-13T11:49:44.140Z,3.00
2019-03-13T11:50:44.131Z,4.50
2019-03-13T11:51:44.132Z,3.90
2019-03-13T11:52:44.123Z,3.60
2019-03-13T11:53:44.121Z,3.40
2019-03-13T11:54:44.112Z,4.30
2019-03-13T11:55:44.956Z,4.20
2019-03-13T11:56:44.106Z,4.70
2019-03-13T11:57:44.098Z,4.40
2019-03-13T11:58:44.090Z,5.50
2019-03-13T11:59:44.084Z,3.00
2019-03-13T12:00:44.080Z,3.30
2019-03-13T12:01:45.915Z,4.50
2019-03-13T12:02:44.067Z,2.70
2019-03-13T12:03:44.063Z,2.20
2019-03-13T12:04:44.058Z,3.50
2019-03-13T12:05:44.052Z,4.00
2019-03-13T12:06:44.048Z,4.60
2019-03-13T12:07:44.041Z,2.90
2019-03-13T12:08:44.036Z,3.10
2019-03-13T12:09:44.031Z,4.80
2019-03-13T12:10:44.021Z,4.00
2019-03-13T12:11:44.021Z,3.20
2019-03-13T12:12:44.010Z,4.60
2019-03-13T12:13:44.008Z,4.00
2019-03-13T12:14:44.030Z,3.50
2019-03-13T12:15:43.995Z,3.90
2019-03-13T12:16:43.992Z,4.50
2019-03-13T12:17:43.986Z,3.90
2019-03-13T12:18:43.978Z,4.50
2019-03-13T12:19:43.976Z,5.60
2019-03-13T12:20:43.968Z,4.90
2019-03-13T12:21:43.961Z,2.90
2019-03-13T12:22:43.955Z,3.60
2019-03-13T12:23:43.951Z,3.30
2019-03-13T12:24:43.963Z,2.80
2019-03-13T12:25:43.941Z,3.80
2019-03-13T12:26:43.939Z,2.50
2019-03-13T12:27:43.923Z,2.70
2019-03-13T12:28:43.921Z,3.00
2019-03-13T12:29:43.920Z,5.10
2019-03-13T12:30:43.911Z,4.10
2019-03-13T12:31:43.905Z,3.20
2019-03-13T12:32:43.901Z,3.00
2019-03-13T12:33:43.893Z,6.00
2019-03-13T12:34:43.889Z,4.60
2019-03-13T12:35:43.880Z,3.90
2019-03-13T12:36:43.882Z,3.90
2019-03-13T12:37:43.870Z,4.20
2019-03-13T12:38:43.864Z,3.60
2019-03-13T12:39:43.858Z,3.40
2019-03-13T12:40:43.853Z,3.50
2019-03-13T12:41:43.850Z,5.10
2019-03-13T12:42:43.841Z,3.20
2019-03-13T12:43:43.837Z,3.20
2019-03-13T12:44:43.835Z,4.20
2019-03-13T12:45:43.823Z,3.00
2019-03-13T12:46:43.819Z,4.60
2019-03-13T12:47:43.831Z,3.00
2019-03-13T12:48:43.813Z,3.40
2019-03-13T12:49:43.804Z,4.20
2019-03-13T12:50:43.796Z,4.00
2019-03-13T12:51:43.789Z,2.60
2019-03-13T12:52:43.782Z,7.30
2019-03-13T12:53:43.779Z,2.30
2019-03-13T12:54:43.771Z,4.30
2019-03-13T12:55:43.768Z,4.60
2019-03-13T12:56:43.759Z,5.20
2019-03-13T12:57:43.753Z,3.90
2019-03-13T12:58:43.753Z,3.20
2019-03-13T12:59:43.748Z,3.90
2019-03-13T13:00:43.742Z,5.70
2019-03-13T13:01:43.732Z,5.50
2019-03-13T13:02:43.721Z,3.00
2019-03-13T13:03:43.733Z,3.60
2019-03-13T13:04:43.712Z,4.00
2019-03-13T13:05:43.706Z,4.80
2019-03-13T13:06:43.699Z,3.70
2019-03-13T13:07:43.698Z,3.60
2019-03-13T13:08:43.689Z,3.30
2019-03-13T13:09:43.682Z,10.50
2019-03-13T13:10:43.685Z,5.60
2019-03-13T13:11:43.669Z,5.70
2019-03-13T13:12:43.664Z,4.90
2019-03-13T13:13:43.657Z,4.00
2019-03-13T13:14:43.652Z,4.80
2019-03-13T13:15:43.646Z,5.40
2019-03-13T13:16:43.639Z,3.70
2019-03-13T13:17:43.636Z,4.80
2019-03-13T13:18:43.629Z,4.20